createdAt,value
2023-05-14T00:01:11.589Z,11.24
2023-05-14T00:04:14.418Z,11.13
2023-05-14T00:07:17.303Z,11.03
2023-05-14T00:10:22.255Z,10.98
2023-05-14T00:13:26.131Z,10.96
2023-05-14T00:16:29.179Z,10.94
2023-05-14T00:19:32.205Z,10.86
2023-05-14T00:22:35.303Z,10.69
2023-05-14T00:25:38.131Z,10.72
2023-05-14T00:28:40.819Z,10.70
2023-05-14T00:31:44.031Z,10.58
2023-05-14T00:34:46.860Z,10.52
2023-05-14T00:37:49.576Z,10.43
2023-05-14T00:40:52.345Z,10.41
2023-05-14T00:43:55.355Z,10.33
2023-05-14T00:46:59.092Z,10.34
2023-05-14T00:50:04.154Z,10.28
2023-05-14T00:53:10.723Z,10.20
2023-05-14T00:56:14.577Z,10.13
2023-05-14T00:59:17.297Z,10.11
2023-05-14T01:02:20.308Z,10.05
2023-05-14T01:05:25.151Z,10.16
2023-05-14T01:08:30.963Z,10.06
2023-05-14T01:11:55.877Z,10.00
2023-05-14T01:15:13.335Z,9.93
2023-05-14T01:18:20.013Z,10.10
2023-05-14T01:21:41.109Z,9.98
2023-05-14T01:24:44.047Z,10.11
2023-05-14T01:27:55.821Z,10.07
2023-05-14T01:31:12.913Z,9.95
2023-05-14T01:34:16.784Z,9.98
2023-05-14T01:37:19.973Z,9.88
2023-05-14T01:40:24.061Z,9.92
2023-05-14T01:43:27.702Z,9.89
2023-05-14T01:46:34.382Z,9.77
2023-05-14T01:49:37.532Z,9.74
2023-05-14T01:52:40.149Z,9.79
2023-05-14T01:55:43.072Z,9.76
2023-05-14T01:58:45.926Z,9.79
2023-05-14T02:01:48.924Z,9.88
2023-05-14T02:04:52.890Z,9.81
2023-05-14T02:07:55.604Z,9.76
2023-05-14T02:10:58.375Z,9.73
2023-05-14T02:14:01.905Z,9.84
2023-05-14T02:17:04.808Z,9.84
2023-05-14T02:20:08.136Z,9.89
2023-05-14T02:23:11.041Z,9.80
2023-05-14T02:26:14.037Z,9.71
2023-05-14T02:29:16.967Z,9.59
2023-05-14T02:32:19.892Z,9.59
2023-05-14T02:35:23.207Z,9.57
2023-05-14T02:38:26.807Z,9.59
2023-05-14T02:41:31.058Z,9.63
2023-05-14T02:44:33.698Z,9.69
2023-05-14T02:47:38.001Z,9.69
2023-05-14T02:50:41.048Z,9.52
2023-05-14T02:53:43.922Z,9.54
2023-05-14T02:56:47.654Z,9.50
2023-05-14T02:59:50.302Z,9.48
2023-05-14T03:02:53.716Z,9.45
2023-05-14T03:05:57.409Z,9.45
2023-05-14T03:09:00.248Z,9.55
2023-05-14T03:12:02.949Z,9.55
2023-05-14T03:15:06.186Z,9.61
2023-05-14T03:18:09.163Z,9.54
2023-05-14T03:21:11.959Z,9.46
2023-05-14T03:24:14.942Z,9.47
2023-05-14T03:27:17.822Z,9.56
2023-05-14T03:30:20.676Z,9.56
2023-05-14T03:33:24.320Z,9.60
2023-05-14T03:36:27.292Z,9.61
2023-05-14T03:39:30.375Z,9.70
2023-05-14T03:42:33.094Z,9.75
2023-05-14T03:45:36.086Z,9.80
2023-05-14T03:48:38.929Z,9.86
2023-05-14T03:51:41.781Z,9.99
2023-05-14T03:54:44.960Z,10.21
2023-05-14T03:57:51.171Z,10.38
2023-05-14T04:00:54.144Z,10.58
2023-05-14T04:03:57.263Z,10.91
2023-05-14T04:07:00.364Z,11.56
2023-05-14T04:10:06.276Z,12.72
2023-05-14T04:13:11.514Z,15.12
2023-05-14T04:16:15.819Z,17.57
2023-05-14T04:19:18.877Z,19.14
2023-05-14T04:22:21.780Z,18.59
2023-05-14T04:25:24.462Z,17.24
2023-05-14T04:28:27.270Z,17.86
2023-05-14T04:31:31.032Z,17.75
2023-05-14T04:34:33.732Z,16.89
2023-05-14T04:37:36.575Z,16.42
2023-05-14T04:40:40.590Z,15.97
2023-05-14T04:43:43.327Z,15.27
2023-05-14T04:46:45.991Z,14.87
2023-05-14T04:49:50.864Z,14.59
2023-05-14T04:52:53.855Z,14.46
2023-05-14T04:55:56.667Z,14.33
2023-05-14T04:58:59.923Z,14.24
2023-05-14T05:02:02.657Z,14.15
2023-05-14T05:05:06.074Z,14.17
2023-05-14T05:08:09.099Z,14.11
2023-05-14T05:11:11.835Z,14.11
2023-05-14T05:14:14.894Z,14.02
2023-05-14T05:17:17.856Z,13.97
2023-05-14T05:20:20.788Z,13.97
2023-05-14T05:23:23.648Z,13.82
2023-05-14T05:26:28.650Z,13.75
2023-05-14T05:29:31.588Z,13.68
2023-05-14T05:32:34.833Z,13.63
2023-05-14T05:35:38.179Z,13.57
2023-05-14T05:38:40.861Z,13.52
2023-05-14T05:41:44.261Z,13.51
2023-05-14T05:44:47.083Z,13.47
2023-05-14T05:47:50.006Z,13.45
2023-05-14T05:50:55.647Z,13.40
2023-05-14T05:53:58.553Z,13.36
2023-05-14T05:57:01.481Z,13.28
2023-05-14T06:00:13.575Z,13.16
2023-05-14T06:03:16.553Z,13.16
2023-05-14T06:06:19.488Z,13.25
2023-05-14T06:09:22.225Z,13.20
2023-05-14T06:12:25.174Z,13.11
2023-05-14T06:15:27.943Z,13.05
2023-05-14T06:18:30.673Z,13.15
2023-05-14T06:21:33.680Z,13.21
2023-05-14T06:24:36.420Z,13.27
2023-05-14T06:27:39.403Z,13.38
2023-05-14T06:30:42.389Z,13.52
2023-05-14T06:33:45.728Z,13.64
2023-05-14T06:36:48.466Z,13.70
2023-05-14T06:39:51.308Z,13.80
2023-05-14T06:42:54.420Z,13.90
2023-05-14T06:45:57.393Z,13.96
2023-05-14T06:49:00.450Z,13.98
2023-05-14T06:52:03.943Z,13.96
2023-05-14T06:55:07.231Z,13.94
2023-05-14T06:58:10.432Z,13.89
2023-05-14T07:01:13.232Z,13.68
2023-05-14T07:04:16.032Z,13.78
2023-05-14T07:07:21.393Z,13.82
2023-05-14T07:10:24.706Z,13.90
2023-05-14T07:13:28.951Z,13.94
2023-05-14T07:16:31.953Z,14.05
2023-05-14T07:19:34.992Z,14.08
2023-05-14T07:22:37.843Z,14.17
2023-05-14T07:25:41.011Z,14.35
2023-05-14T07:28:43.965Z,14.29
2023-05-14T07:31:47.157Z,14.17
2023-05-14T07:34:50.819Z,14.17
2023-05-14T07:37:53.708Z,14.05
2023-05-14T07:40:56.637Z,13.92
2023-05-14T07:43:59.506Z,13.88
2023-05-14T07:47:02.426Z,13.93
2023-05-14T07:50:08.001Z,13.89
2023-05-14T07:53:10.925Z,13.87
2023-05-14T07:56:13.871Z,13.80
2023-05-14T07:59:16.790Z,13.67
2023-05-14T08:02:22.088Z,13.70
2023-05-14T08:05:25.160Z,13.71
2023-05-14T08:08:28.243Z,13.68
2023-05-14T08:11:31.553Z,13.69
2023-05-14T08:14:34.641Z,13.70
2023-05-14T08:17:37.409Z,13.67
2023-05-14T08:20:40.455Z,13.61
2023-05-14T08:23:43.286Z,13.64
2023-05-14T08:26:46.190Z,13.51
2023-05-14T08:29:52.147Z,13.46
2023-05-14T08:32:55.163Z,13.49
2023-05-14T08:36:00.841Z,13.44
2023-05-14T08:39:04.007Z,13.44
2023-05-14T08:42:11.120Z,13.45
2023-05-14T08:45:19.480Z,13.44
2023-05-14T08:48:23.770Z,13.42
2023-05-14T08:51:27.383Z,13.42
2023-05-14T08:54:32.977Z,13.43
2023-05-14T08:57:36.213Z,13.42
2023-05-14T09:00:39.355Z,13.53
2023-05-14T09:03:43.198Z,13.59
2023-05-14T09:06:48.694Z,13.82
2023-05-14T09:09:55.373Z,14.00
2023-05-14T09:12:58.524Z,14.27
2023-05-14T09:16:01.489Z,14.55
2023-05-14T09:19:05.328Z,14.72
2023-05-14T09:22:16.299Z,14.87
2023-05-14T09:25:19.212Z,14.93
2023-05-14T09:28:23.253Z,15.08
2023-05-14T09:31:26.094Z,14.94
2023-05-14T09:34:30.893Z,14.69
2023-05-14T09:37:37.019Z,14.83
2023-05-14T09:40:40.116Z,14.95
2023-05-14T09:43:43.283Z,15.25
2023-05-14T09:46:47.100Z,15.55
2023-05-14T09:49:51.223Z,15.75
2023-05-14T09:52:56.287Z,15.86
2023-05-14T09:55:59.171Z,15.97
2023-05-14T09:59:02.354Z,16.00
2023-05-14T10:02:07.057Z,15.99
2023-05-14T10:05:10.943Z,16.22
2023-05-14T10:08:17.228Z,16.13
2023-05-14T10:11:25.397Z,15.75
2023-05-14T10:14:34.686Z,15.98
2023-05-14T10:17:40.181Z,16.12
2023-05-14T10:20:43.768Z,16.03
2023-05-14T10:23:47.388Z,16.06
2023-05-14T10:26:50.657Z,16.04
2023-05-14T10:29:55.102Z,16.30
2023-05-14T10:33:12.830Z,16.37
2023-05-14T10:36:15.854Z,16.48
2023-05-14T10:39:18.909Z,16.47
2023-05-14T10:42:30.520Z,16.37
2023-05-14T10:45:34.941Z,16.36
2023-05-14T10:48:40.675Z,16.28
2023-05-14T10:51:43.797Z,16.34
2023-05-14T10:55:12.832Z,16.32
2023-05-14T10:58:16.142Z,16.55
2023-05-14T11:01:19.145Z,16.37
2023-05-14T11:04:25.585Z,16.36
2023-05-14T11:07:39.777Z,16.16
2023-05-14T11:10:43.541Z,15.97
2023-05-14T11:13:46.823Z,15.46
2023-05-14T11:16:50.788Z,15.51
2023-05-14T11:19:55.153Z,15.34
2023-05-14T11:22:58.442Z,15.26
2023-05-14T11:26:02.092Z,15.18
2023-05-14T11:29:06.280Z,15.14
2023-05-14T11:32:09.898Z,15.08
2023-05-14T11:35:14.183Z,14.93
2023-05-14T11:38:18.912Z,14.73
2023-05-14T11:41:23.667Z,14.61
2023-05-14T11:44:26.741Z,14.68
2023-05-14T11:47:30.194Z,14.78
2023-05-14T11:50:37.073Z,14.62
2023-05-14T11:53:40.159Z,14.65
2023-05-14T11:56:42.978Z,14.69
2023-05-14T11:59:46.286Z,14.65
2023-05-14T12:02:50.634Z,14.59
2023-05-14T12:06:00.224Z,14.47
2023-05-14T12:09:05.800Z,14.26
2023-05-14T12:12:12.953Z,14.22
2023-05-14T12:15:19.317Z,14.26
2023-05-14T12:18:24.995Z,14.24
2023-05-14T12:21:29.257Z,14.50
2023-05-14T12:24:32.112Z,14.62
2023-05-14T12:27:37.886Z,14.54
2023-05-14T12:30:41.794Z,14.40
2023-05-14T12:33:44.589Z,14.34
2023-05-14T12:36:47.617Z,14.42
2023-05-14T12:39:50.440Z,14.33
2023-05-14T12:42:54.954Z,14.21
2023-05-14T12:46:00.166Z,14.21
2023-05-14T12:49:03.031Z,13.89
2023-05-14T12:52:22.727Z,13.73
2023-05-14T12:55:32.695Z,13.54
2023-05-14T12:58:35.541Z,13.56
2023-05-14T13:01:38.793Z,13.50
2023-05-14T13:04:42.016Z,13.46
2023-05-14T13:07:46.404Z,13.37
2023-05-14T13:10:55.378Z,13.33
2023-05-14T13:14:21.923Z,13.33
2023-05-14T13:17:35.837Z,13.38
2023-05-14T13:20:44.591Z,13.44
2023-05-14T13:23:48.361Z,13.41
2023-05-14T13:26:51.294Z,13.29
2023-05-14T13:29:54.253Z,13.37
2023-05-14T13:32:57.076Z,13.46
2023-05-14T13:35:59.995Z,13.56
2023-05-14T13:39:03.251Z,13.65
2023-05-14T13:42:06.649Z,13.77
2023-05-14T13:45:10.378Z,13.88
2023-05-14T13:48:13.484Z,13.94
2023-05-14T13:51:16.500Z,13.95
2023-05-14T13:54:19.454Z,14.02
2023-05-14T13:57:23.527Z,13.95
2023-05-14T14:00:28.809Z,13.89
2023-05-14T14:03:31.785Z,13.90
2023-05-14T14:06:34.572Z,13.90
2023-05-14T14:09:37.885Z,13.84
2023-05-14T14:12:41.145Z,13.71
2023-05-14T14:15:44.276Z,13.91
2023-05-14T14:18:50.467Z,13.96
2023-05-14T14:21:53.518Z,14.09
2023-05-14T14:24:56.559Z,14.21
2023-05-14T14:27:59.427Z,14.17
2023-05-14T14:31:02.840Z,14.34
2023-05-14T14:34:05.880Z,14.47
2023-05-14T14:37:10.513Z,14.33
2023-05-14T14:40:16.855Z,14.43
2023-05-14T14:43:19.726Z,14.56
2023-05-14T14:46:22.642Z,14.68
2023-05-14T14:49:26.810Z,14.72
2023-05-14T14:52:29.665Z,14.71
2023-05-14T14:55:44.532Z,14.81
2023-05-14T15:02:22.038Z,14.74
2023-05-14T15:05:32.548Z,14.73
2023-05-14T15:08:36.128Z,14.61
2023-05-14T15:11:41.308Z,14.62
2023-05-14T15:14:44.109Z,14.65
2023-05-14T15:17:47.160Z,14.61
2023-05-14T15:20:50.538Z,14.64
2023-05-14T15:23:53.678Z,14.55
2023-05-14T15:26:56.555Z,14.37
2023-05-14T15:29:59.557Z,14.11
2023-05-14T15:33:18.045Z,14.18
2023-05-14T15:36:21.018Z,14.07
2023-05-14T15:39:24.183Z,14.05
2023-05-14T15:42:28.777Z,14.13
2023-05-14T15:45:37.187Z,14.16
2023-05-14T15:48:42.672Z,14.07
2023-05-14T15:51:45.488Z,13.98
2023-05-14T15:54:48.531Z,13.89
2023-05-14T15:57:51.230Z,13.66
2023-05-14T16:00:54.455Z,13.55
2023-05-14T16:03:57.306Z,13.34
2023-05-14T16:07:08.780Z,13.41
2023-05-14T16:10:17.765Z,13.28
2023-05-14T16:13:21.056Z,13.26
2023-05-14T16:16:25.534Z,13.41
2023-05-14T16:19:29.213Z,13.45
2023-05-14T16:22:35.608Z,13.35
2023-05-14T16:25:38.914Z,13.23
2023-05-14T16:28:45.299Z,13.16
2023-05-14T16:31:48.493Z,13.16
2023-05-14T16:34:51.730Z,12.98
2023-05-14T16:37:55.010Z,13.01
2023-05-14T16:41:00.450Z,13.04
2023-05-14T16:44:03.783Z,13.06
2023-05-14T16:47:07.162Z,12.94
2023-05-14T16:50:10.282Z,13.10
2023-05-14T16:53:13.096Z,13.07
2023-05-14T16:56:16.042Z,13.17
2023-05-14T16:59:19.010Z,13.18
2023-05-14T17:02:22.066Z,13.18
2023-05-14T17:05:25.454Z,13.13
2023-05-14T17:08:32.732Z,13.20
2023-05-14T17:11:35.670Z,13.17
2023-05-14T17:14:41.048Z,13.21
2023-05-14T17:17:46.478Z,13.25
2023-05-14T17:20:49.572Z,13.19
2023-05-14T17:23:52.529Z,13.20
2023-05-14T17:26:55.646Z,13.16
2023-05-14T17:29:58.798Z,13.13
2023-05-14T17:33:02.007Z,13.11
2023-05-14T17:36:08.563Z,13.04
2023-05-14T17:39:11.892Z,12.98
2023-05-14T17:42:17.184Z,12.99
2023-05-14T17:45:21.663Z,12.95
2023-05-14T17:48:25.016Z,12.87
2023-05-14T17:51:27.950Z,12.84
2023-05-14T17:54:31.357Z,12.88
2023-05-14T17:57:36.372Z,12.94
2023-05-14T18:00:40.109Z,12.97
2023-05-14T18:03:42.988Z,12.89
2023-05-14T18:06:48.576Z,12.81
2023-05-14T18:09:54.699Z,12.76
2023-05-14T18:12:58.056Z,12.79
2023-05-14T18:16:01.592Z,12.77
2023-05-14T18:19:04.872Z,12.76
2023-05-14T18:22:07.845Z,12.78
2023-05-14T18:25:11.034Z,12.77
2023-05-14T18:28:13.862Z,12.78
2023-05-14T18:31:18.141Z,12.75
2023-05-14T18:34:21.445Z,12.85
2023-05-14T18:37:25.908Z,12.78
2023-05-14T18:40:28.914Z,12.79
2023-05-14T18:43:32.125Z,12.74
2023-05-14T18:46:37.160Z,12.71
2023-05-14T18:49:41.767Z,12.67
2023-05-14T18:52:44.766Z,12.60
2023-05-14T18:55:47.785Z,12.65
2023-05-14T18:58:50.827Z,12.58
2023-05-14T19:01:54.012Z,12.64
2023-05-14T19:04:56.978Z,12.64
2023-05-14T19:07:59.988Z,12.65
2023-05-14T19:11:07.040Z,12.64
2023-05-14T19:14:09.879Z,12.35
2023-05-14T19:17:17.284Z,12.58
2023-05-14T19:20:21.457Z,12.54
2023-05-14T19:23:24.382Z,12.62
2023-05-14T19:26:27.247Z,12.65
2023-05-14T19:29:30.115Z,12.65
2023-05-14T19:32:33.009Z,12.64
2023-05-14T19:35:35.915Z,12.67
2023-05-14T19:38:38.823Z,12.68
2023-05-14T19:41:41.788Z,12.67
2023-05-14T19:44:46.786Z,12.68
2023-05-14T19:47:51.788Z,12.66
2023-05-14T19:50:54.719Z,12.63
2023-05-14T19:53:57.641Z,12.65
2023-05-14T19:57:00.418Z,12.66
2023-05-14T20:00:04.582Z,12.61
2023-05-14T20:03:13.845Z,12.58
2023-05-14T20:06:17.812Z,12.60
2023-05-14T20:09:20.976Z,12.61
2023-05-14T20:12:24.148Z,12.62
2023-05-14T20:15:27.147Z,12.58
2023-05-14T20:18:30.142Z,12.51
2023-05-14T20:21:33.073Z,12.47
2023-05-14T20:24:35.993Z,12.44
2023-05-14T20:27:38.794Z,12.34
2023-05-14T20:30:41.626Z,12.29
2023-05-14T20:33:44.537Z,12.29
2023-05-14T20:36:47.220Z,12.41
2023-05-14T20:39:51.735Z,12.41
2023-05-14T20:42:54.775Z,12.39
2023-05-14T20:45:59.404Z,12.36
2023-05-14T20:49:02.613Z,12.37
2023-05-14T20:52:05.498Z,12.47
2023-05-14T20:55:08.950Z,12.45
2023-05-14T20:58:14.836Z,12.45
2023-05-14T21:01:19.957Z,12.43
2023-05-14T21:04:23.540Z,12.47
2023-05-14T21:07:27.604Z,12.44
2023-05-14T21:10:31.729Z,12.42
2023-05-14T21:13:34.384Z,12.40
2023-05-14T21:16:37.344Z,12.39
2023-05-14T21:19:40.068Z,12.44
2023-05-14T21:22:42.756Z,12.49
2023-05-14T21:25:45.952Z,12.47
2023-05-14T21:28:49.077Z,12.48
2023-05-14T21:31:51.794Z,12.41
2023-05-14T21:34:54.933Z,12.42
2023-05-14T21:37:57.783Z,12.48
2023-05-14T21:41:02.934Z,12.51
2023-05-14T21:44:09.968Z,12.54
2023-05-14T21:47:12.607Z,12.26
2023-05-14T21:50:16.943Z,12.44
2023-05-14T21:53:19.856Z,12.40
2023-05-14T21:56:22.813Z,12.49
2023-05-14T21:59:28.038Z,12.49
2023-05-14T22:02:31.705Z,12.34
2023-05-14T22:05:34.726Z,12.40
2023-05-14T22:08:37.483Z,12.40
2023-05-14T22:11:40.312Z,12.39
2023-05-14T22:14:43.201Z,12.41
2023-05-14T22:17:47.339Z,12.43
2023-05-14T22:20:50.037Z,12.40
2023-05-14T22:23:52.895Z,12.41
2023-05-14T22:26:56.049Z,12.41
2023-05-14T22:29:59.069Z,12.39
2023-05-14T22:33:01.931Z,12.40
2023-05-14T22:36:04.905Z,12.39
2023-05-14T22:39:07.699Z,12.41
2023-05-14T22:42:12.743Z,12.41
2023-05-14T22:45:15.756Z,12.41
2023-05-14T22:48:18.397Z,12.40
2023-05-14T22:51:21.434Z,12.43
2023-05-14T22:54:24.223Z,12.39
2023-05-14T22:57:27.143Z,12.40
2023-05-14T23:00:29.940Z,12.45
2023-05-14T23:03:34.043Z,12.45
2023-05-14T23:06:37.097Z,12.40
2023-05-14T23:09:39.832Z,12.41
2023-05-14T23:12:42.993Z,12.41
2023-05-14T23:15:46.197Z,12.48
2023-05-14T23:18:49.833Z,12.48
2023-05-14T23:21:53.029Z,12.56
2023-05-14T23:24:55.815Z,12.55
2023-05-14T23:27:58.536Z,12.47
2023-05-14T23:31:03.363Z,12.48
2023-05-14T23:34:06.225Z,12.46
2023-05-14T23:37:09.055Z,12.47
2023-05-14T23:40:11.980Z,12.46
2023-05-14T23:43:15.400Z,12.44
2023-05-14T23:46:18.149Z,12.45
2023-05-14T23:49:20.875Z,12.49
2023-05-14T23:52:23.566Z,12.45
2023-05-14T23:55:26.556Z,12.45
2023-05-14T23:58:30.558Z,12.46
